createdAt,value
2019-01-16T00:01:20.847Z,-21117.18
2019-01-16T00:03:55.438Z,-21125.57
2019-01-16T00:06:40.112Z,-21133.82
2019-01-16T00:09:13.152Z,-21143.79
2019-01-16T00:11:48.815Z,-21138.66
2019-01-16T00:14:27.617Z,-21124.00
2019-01-16T00:16:57.546Z,-21136.96
2019-01-16T00:19:36.514Z,-21141.09
2019-01-16T00:22:15.940Z,-21137.96
2019-01-16T00:24:57.544Z,-21133.97
2019-01-16T00:27:30.241Z,-21128.99
2019-01-16T00:30:09.105Z,-21132.12
2019-01-16T00:32:39.003Z,-21120.16
2019-01-16T00:35:23.924Z,-21129.84
2019-01-16T00:37:59.591Z,-21127.71
2019-01-16T00:40:29.494Z,-21129.98
2019-01-16T00:43:02.374Z,-21129.41
2019-01-16T00:45:37.998Z,-21131.12
2019-01-16T00:48:13.622Z,-21135.11
2019-01-16T00:50:43.533Z,-21144.49
2019-01-16T00:53:13.438Z,-21130.84
2019-01-16T00:55:58.416Z,-21134.25
2019-01-16T00:58:46.608Z,-21140.52
2019-01-16T01:01:16.546Z,-21135.67
2019-01-16T01:03:49.187Z,-21136.96
2019-01-16T01:06:27.937Z,-21134.25
2019-01-16T01:09:00.538Z,-21126.00
2019-01-16T01:11:33.305Z,-21134.11
2019-01-16T01:14:12.224Z,-21134.25
2019-01-16T01:16:59.099Z,-21133.82
2019-01-16T01:19:29.298Z,-21127.56
2019-01-16T01:22:17.591Z,-21128.42
2019-01-16T01:24:59.695Z,-21140.37
2019-01-16T01:27:32.336Z,-21124.15
2019-01-16T01:30:07.682Z,-21124.29
2019-01-16T01:32:37.591Z,-21145.35
2019-01-16T01:35:22.672Z,-21126.00
2019-01-16T01:37:58.002Z,-21131.69
2019-01-16T01:40:27.929Z,-21134.54
2019-01-16T01:43:14.443Z,-21115.32
2019-01-16T01:45:49.901Z,-21123.86
2019-01-16T01:48:19.822Z,-21129.27
2019-01-16T01:50:49.739Z,-21118.88
2019-01-16T01:53:37.943Z,-21119.17
2019-01-16T01:56:13.625Z,-21119.45
2019-01-16T01:58:48.975Z,-21114.18
2019-01-16T02:01:21.547Z,-21105.36
2019-01-16T02:03:51.458Z,-21120.30
2019-01-16T02:06:21.356Z,-21122.01
2019-01-16T02:08:53.786Z,-21113.76
2019-01-16T02:11:23.688Z,-21114.61
2019-01-16T02:14:09.718Z,-21108.49
2019-01-16T02:16:55.470Z,-21105.79
2019-01-16T02:19:28.205Z,-21110.91
2019-01-16T02:22:12.957Z,-21098.09
2019-01-16T02:24:51.806Z,-21109.06
2019-01-16T02:27:27.332Z,-21110.77
2019-01-16T02:30:02.992Z,-21113.19
2019-01-16T02:32:32.939Z,-21121.16
2019-01-16T02:35:02.901Z,-21127.99
2019-01-16T02:37:32.897Z,-21128.42
2019-01-16T02:40:05.499Z,-21118.74
2019-01-16T02:42:35.408Z,-21131.26
2019-01-16T02:45:22.812Z,-21135.81
2019-01-16T02:47:52.738Z,-21113.90
2019-01-16T02:50:37.691Z,-21120.45
2019-01-16T02:53:16.780Z,-21116.04
2019-01-16T02:55:46.727Z,-21120.59
2019-01-16T02:58:19.271Z,-21115.04
2019-01-16T03:01:01.332Z,-21120.45
2019-01-16T03:03:40.023Z,-21120.16
2019-01-16T03:06:09.907Z,-21110.77
2019-01-16T03:08:42.284Z,-21114.32
2019-01-16T03:11:17.867Z,-21112.19
2019-01-16T03:13:47.783Z,-21115.04
2019-01-16T03:16:23.376Z,-21115.90
2019-01-16T03:19:09.230Z,-21116.75
2019-01-16T03:21:39.155Z,-21126.14
2019-01-16T03:24:09.071Z,-21116.75
2019-01-16T03:26:44.958Z,-21106.50
2019-01-16T03:29:17.287Z,-21119.74
2019-01-16T03:32:02.091Z,-21114.90
2019-01-16T03:34:31.942Z,-21109.06
2019-01-16T03:37:14.051Z,-21128.56
2019-01-16T03:39:46.915Z,-21127.42
2019-01-16T03:42:33.015Z,-21120.73
2019-01-16T03:45:21.125Z,-21119.88
2019-01-16T03:47:57.051Z,-21138.10
2019-01-16T03:50:26.948Z,-21133.11
2019-01-16T03:52:59.378Z,-21131.55
2019-01-16T03:55:40.985Z,-21125.43
2019-01-16T03:58:13.598Z,-21131.98
2019-01-16T04:00:46.331Z,-21121.02
2019-01-16T04:03:22.195Z,-21116.61
2019-01-16T04:05:52.135Z,-21124.00
2019-01-16T04:08:27.769Z,-21118.74
2019-01-16T04:11:00.370Z,-21116.89
2019-01-16T04:13:32.979Z,-21109.35
2019-01-16T04:16:02.866Z,-21114.90
2019-01-16T04:18:35.516Z,-21113.62
2019-01-16T04:21:11.136Z,-21122.73
2019-01-16T04:23:41.071Z,-21115.04
2019-01-16T04:26:10.966Z,-21124.43
2019-01-16T04:28:43.285Z,-21127.85
2019-01-16T04:31:22.067Z,-21136.96
2019-01-16T04:33:51.953Z,-21127.28
2019-01-16T04:36:24.988Z,-21128.13
2019-01-16T04:39:06.804Z,-21123.58
2019-01-16T04:41:39.565Z,-21119.31
2019-01-16T04:44:12.508Z,-21137.53
2019-01-16T04:46:58.330Z,-21124.15
2019-01-16T04:49:30.594Z,-21131.55
2019-01-16T04:52:02.796Z,-21112.76
2019-01-16T04:54:35.403Z,-21120.87
2019-01-16T04:57:14.515Z,-21127.13
2019-01-16T04:59:56.432Z,-21119.31
2019-01-16T05:02:31.914Z,-21132.40
2019-01-16T05:05:16.866Z,-21131.98
2019-01-16T05:07:46.782Z,-21125.29
2019-01-16T05:10:16.755Z,-21149.90
2019-01-16T05:13:01.592Z,-21120.16
2019-01-16T05:15:40.392Z,-21130.84
2019-01-16T05:18:26.195Z,-21123.30
2019-01-16T05:21:05.234Z,-21122.87
2019-01-16T05:23:50.186Z,-21131.69
2019-01-16T05:26:35.415Z,-21139.80
2019-01-16T05:29:07.915Z,-21133.82
2019-01-16T05:31:37.834Z,-21146.34
2019-01-16T05:34:07.747Z,-21135.81
2019-01-16T05:36:40.137Z,-21125.00
2019-01-16T05:39:15.581Z,-21138.38
2019-01-16T05:41:45.507Z,-21108.06
2019-01-16T05:44:31.839Z,-21114.61
2019-01-16T05:47:04.245Z,-21111.34
2019-01-16T05:49:34.177Z,-21111.34
2019-01-16T05:52:04.128Z,-21121.73
2019-01-16T05:54:49.909Z,-21111.91
2019-01-16T05:57:36.319Z,-21110.05
2019-01-16T06:00:18.203Z,-21111.34
2019-01-16T06:03:04.307Z,-21105.22
2019-01-16T06:05:34.225Z,-21107.63
2019-01-16T06:08:07.107Z,-21125.00
2019-01-16T06:10:45.919Z,-21109.77
2019-01-16T06:13:24.822Z,-21118.03
2019-01-16T06:16:03.313Z,-21111.76
2019-01-16T06:18:33.265Z,-21114.32
2019-01-16T06:21:19.475Z,-21111.48
2019-01-16T06:24:05.668Z,-21104.08
2019-01-16T06:26:35.608Z,-21114.32
2019-01-16T06:29:11.735Z,-21117.18
2019-01-16T06:31:41.641Z,-21105.79
2019-01-16T06:34:19.988Z,-21113.48
2019-01-16T06:36:49.901Z,-21111.34
2019-01-16T06:39:19.814Z,-21120.73
2019-01-16T06:42:01.687Z,-21132.54
2019-01-16T06:44:37.642Z,-21120.30
2019-01-16T06:47:10.323Z,-21112.62
2019-01-16T06:49:40.233Z,-21116.18
2019-01-16T06:52:15.908Z,-21103.79
2019-01-16T06:57:59.648Z,-21108.35
2019-01-16T07:00:38.170Z,-21115.61
2019-01-16T07:03:25.889Z,-21105.22
2019-01-16T07:06:01.869Z,-21098.95
2019-01-16T07:08:43.598Z,-21103.08
2019-01-16T07:11:28.483Z,-21111.91
2019-01-16T07:14:13.726Z,-21101.52
2019-01-16T07:16:55.601Z,-21110.20
2019-01-16T07:19:25.581Z,-21114.90
2019-01-16T07:22:07.503Z,-21095.67
2019-01-16T07:24:43.443Z,-21108.21
2019-01-16T07:27:25.187Z,-21109.06
2019-01-16T07:30:00.870Z,-21110.77
2019-01-16T07:32:33.395Z,-21107.78
2019-01-16T07:35:09.011Z,-21116.61
2019-01-16T07:37:47.792Z,-21101.23
2019-01-16T07:40:23.703Z,-21104.08
2019-01-16T07:42:53.670Z,-21118.88
2019-01-16T07:45:32.589Z,-21112.19
2019-01-16T07:48:02.486Z,-21115.47
2019-01-16T07:50:48.837Z,-21117.88
2019-01-16T07:53:34.939Z,-21091.68
2019-01-16T07:56:16.667Z,-21100.09
2019-01-16T07:58:46.598Z,-21109.06
2019-01-16T08:01:20.795Z,-21098.95
2019-01-16T08:03:53.139Z,-21105.50
2019-01-16T08:06:25.490Z,-21099.52
2019-01-16T08:09:01.168Z,-21091.83
2019-01-16T08:11:36.774Z,-21092.39
2019-01-16T08:14:12.665Z,-21096.53
2019-01-16T08:16:45.309Z,-21094.25
2019-01-16T08:19:17.469Z,-21092.96
2019-01-16T08:21:50.049Z,-21085.55
2019-01-16T08:24:19.948Z,-21087.70
2019-01-16T08:26:58.579Z,-21093.82
2019-01-16T08:29:43.179Z,-21093.39
2019-01-16T08:32:22.065Z,-21098.09
2019-01-16T08:34:52.036Z,-21100.37
2019-01-16T08:37:38.098Z,-21104.08
2019-01-16T08:40:27.270Z,-21120.45
2019-01-16T08:43:13.587Z,-21099.38
2019-01-16T08:45:47.501Z,-21109.63
2019-01-16T08:48:20.128Z,-21115.75
2019-01-16T08:51:01.918Z,-21108.49
2019-01-16T08:53:31.823Z,-21098.37
2019-01-16T08:56:04.315Z,-21093.68
2019-01-16T08:58:50.460Z,-21098.80
2019-01-16T09:01:33.006Z,-21105.36
2019-01-16T09:04:03.040Z,-21103.93
2019-01-16T09:06:38.698Z,-21096.53
2019-01-16T09:09:22.536Z,-21096.10
2019-01-16T09:11:58.088Z,-21109.91
2019-01-16T09:14:44.289Z,-21102.51
2019-01-16T09:17:17.113Z,-21096.10
2019-01-16T09:22:28.010Z,-21097.81
2019-01-16T09:25:00.874Z,-21113.05
2019-01-16T09:27:46.691Z,-21119.88
2019-01-16T09:30:16.668Z,-21106.64
2019-01-16T09:32:48.111Z,-21115.04
2019-01-16T09:35:18.012Z,-21109.49
2019-01-16T09:40:36.093Z,-21108.21
2019-01-16T09:43:15.127Z,-21102.08
2019-01-16T09:45:53.972Z,-21103.08
2019-01-16T09:48:23.921Z,-21111.20
2019-01-16T09:50:53.827Z,-21131.69
2019-01-16T09:53:32.834Z,-21112.91
2019-01-16T09:56:05.683Z,-21112.34
2019-01-16T09:58:38.243Z,-21094.53
2019-01-16T10:01:10.641Z,-21095.10
2019-01-16T10:03:59.261Z,-21097.24
2019-01-16T10:06:36.440Z,-21102.37
2019-01-16T10:09:13.245Z,-21096.67
2019-01-16T10:11:45.922Z,-21103.50
2019-01-16T10:14:31.945Z,-21104.08
2019-01-16T10:17:10.352Z,-21124.43
2019-01-16T10:19:52.126Z,-21117.18
2019-01-16T10:22:27.909Z,-21116.61
2019-01-16T10:25:14.216Z,-21112.91
2019-01-16T10:27:47.149Z,-21122.16
2019-01-16T10:30:20.084Z,-21123.72
2019-01-16T10:32:58.703Z,-21122.44
2019-01-16T10:35:28.603Z,-21104.65
2019-01-16T10:38:16.285Z,-21110.63
2019-01-16T10:40:55.040Z,-21115.32
2019-01-16T10:43:25.056Z,-21111.05
2019-01-16T10:45:54.991Z,-21140.66
2019-01-16T10:48:36.552Z,-21109.06
2019-01-16T10:51:06.597Z,-21114.90
2019-01-16T10:53:39.438Z,-21111.20
2019-01-16T10:56:25.687Z,-21123.86
2019-01-16T10:59:10.578Z,-21111.34
2019-01-16T11:01:45.955Z,-21102.65
2019-01-16T11:04:31.756Z,-21097.38
2019-01-16T11:07:04.389Z,-21112.48
2019-01-16T11:09:34.292Z,-21113.34
2019-01-16T11:12:23.604Z,-21117.32
2019-01-16T11:15:09.397Z,-21120.73
2019-01-16T11:23:23.589Z,-21139.09
2019-01-16T11:25:56.162Z,-21120.87
2019-01-16T11:28:28.752Z,-21153.16
2019-01-16T11:31:10.448Z,-21156.29
2019-01-16T11:33:40.409Z,-21139.94
2019-01-16T11:36:28.431Z,-21129.55
2019-01-16T11:39:04.314Z,-21122.16
2019-01-16T11:41:34.212Z,-21109.20
2019-01-16T11:44:06.795Z,-21112.34
2019-01-16T11:46:45.830Z,-21126.29
2019-01-16T11:49:27.525Z,-21140.37
2019-01-16T11:52:00.116Z,-21126.57
2019-01-16T11:54:32.721Z,-21146.48
2019-01-16T11:57:11.099Z,-21153.59
2019-01-16T11:59:50.016Z,-21154.02
2019-01-16T12:02:38.639Z,-21146.20
2019-01-16T12:05:21.878Z,-21142.93
2019-01-16T12:07:54.878Z,-21149.33
2019-01-16T12:10:25.185Z,-21175.47
2019-01-16T12:12:57.837Z,-21163.68
2019-01-16T12:15:27.826Z,-21176.32
2019-01-16T12:18:06.739Z,-21171.92
2019-01-16T12:20:54.981Z,-21176.47
2019-01-16T12:23:24.916Z,-21167.38
2019-01-16T12:26:11.317Z,-21162.69
2019-01-16T12:28:43.733Z,-21205.28
2019-01-16T12:31:13.639Z,-21203.02
2019-01-16T12:33:55.698Z,-21206.98
2019-01-16T12:36:28.369Z,-21210.39
2019-01-16T12:38:58.263Z,-21233.49
2019-01-16T12:41:28.186Z,-21195.92
2019-01-16T12:44:14.220Z,-21206.70
2019-01-16T12:47:00.135Z,-21213.50
2019-01-16T12:49:30.129Z,-21162.40
2019-01-16T12:52:05.523Z,-21155.45
2019-01-16T12:54:41.171Z,-21166.24
2019-01-16T12:57:16.823Z,-21175.47
2019-01-16T12:59:49.185Z,-21170.50
2019-01-16T13:02:21.982Z,-21203.72
2019-01-16T13:04:51.896Z,-21197.76
2019-01-16T13:07:21.833Z,-21199.89
2019-01-16T13:09:58.066Z,-21201.73
2019-01-16T13:12:36.636Z,-21176.75
2019-01-16T13:15:08.015Z,-21167.09
2019-01-16T13:17:40.870Z,-21199.32
2019-01-16T13:20:14.936Z,-21205.28
2019-01-16T13:22:50.306Z,-21215.78
2019-01-16T13:25:26.194Z,-21214.21
2019-01-16T13:28:10.996Z,-21222.44
2019-01-16T13:30:40.921Z,-21230.80
2019-01-16T13:33:13.251Z,-21205.42
2019-01-16T13:35:43.183Z,-21190.81
2019-01-16T13:38:19.023Z,-21193.93
2019-01-16T13:40:48.926Z,-21180.16
2019-01-16T13:43:21.758Z,-21197.34
2019-01-16T13:46:07.648Z,-21203.29
2019-01-16T13:48:52.982Z,-21200.46
2019-01-16T13:51:46.286Z,-21184.00
2019-01-16T13:54:31.248Z,-21185.27
2019-01-16T13:57:04.260Z,-21177.74
2019-01-16T13:59:34.156Z,-21187.97
2019-01-16T14:02:04.087Z,-21206.98
2019-01-16T14:04:45.352Z,-21211.38
2019-01-16T14:07:24.296Z,-21187.40
2019-01-16T14:10:03.081Z,-21195.63
2019-01-16T14:12:49.055Z,-21220.03
2019-01-16T14:15:19.131Z,-21190.10
2019-01-16T14:17:52.128Z,-21171.07
2019-01-16T14:20:36.845Z,-21179.45
2019-01-16T14:23:07.049Z,-21185.84
2019-01-16T14:25:53.065Z,-21178.60
2019-01-16T14:28:25.769Z,-21168.80
2019-01-16T14:31:07.449Z,-21184.99
2019-01-16T14:33:37.362Z,-21181.59
2019-01-16T14:36:23.693Z,-21181.44
2019-01-16T14:39:09.659Z,-21177.60
2019-01-16T14:41:42.542Z,-21185.84
2019-01-16T14:44:12.460Z,-21170.36
2019-01-16T14:46:45.098Z,-21157.43
2019-01-16T14:49:23.931Z,-21185.41
2019-01-16T14:52:09.235Z,-21130.13
2019-01-16T14:54:39.138Z,-21162.97
2019-01-16T14:57:12.258Z,-21180.02
2019-01-16T14:59:42.195Z,-21152.46
2019-01-16T15:02:30.472Z,-21140.80
2019-01-16T15:05:00.398Z,-21175.19
2019-01-16T15:07:33.061Z,-21174.34
2019-01-16T15:10:21.086Z,-21154.16
2019-01-16T15:12:56.707Z,-21136.67
2019-01-16T15:15:26.603Z,-21145.21
2019-01-16T15:17:56.516Z,-21127.99
2019-01-16T15:20:26.424Z,-21157.71
2019-01-16T15:23:02.271Z,-21150.75
2019-01-16T15:25:32.190Z,-21173.77
2019-01-16T15:28:20.107Z,-21171.36
2019-01-16T15:30:50.056Z,-21173.34
2019-01-16T15:33:28.950Z,-21135.67
2019-01-16T15:36:16.984Z,-21149.33
2019-01-16T15:38:58.770Z,-21132.40
2019-01-16T15:41:34.479Z,-21135.67
2019-01-16T15:44:14.575Z,-21144.92
2019-01-16T15:46:44.566Z,-21133.97
2019-01-16T15:49:30.879Z,-21138.10
2019-01-16T15:52:16.588Z,-21109.91
2019-01-16T15:55:04.845Z,-21133.68
2019-01-16T15:57:34.810Z,-21146.91
2019-01-16T16:00:13.724Z,-21132.54
2019-01-16T16:02:49.576Z,-21139.23
2019-01-16T16:05:22.037Z,-21140.66
2019-01-16T16:07:54.746Z,-21132.83
2019-01-16T16:10:24.670Z,-21150.18
2019-01-16T16:13:06.853Z,-21132.40
2019-01-16T16:15:48.568Z,-21117.74
2019-01-16T16:18:21.436Z,-21129.70
2019-01-16T16:20:54.084Z,-21119.74
2019-01-16T16:23:33.172Z,-21132.12
2019-01-16T16:26:03.104Z,-21121.44
2019-01-16T16:28:33.028Z,-21114.75
2019-01-16T16:31:02.963Z,-21104.79
2019-01-16T16:33:32.917Z,-21113.19
2019-01-16T16:36:21.099Z,-21117.18
2019-01-16T16:39:07.503Z,-21128.85
2019-01-16T16:41:45.989Z,-21105.64
2019-01-16T16:44:24.471Z,-21127.28
2019-01-16T16:46:57.070Z,-21123.58
2019-01-16T16:49:33.952Z,-21101.66
2019-01-16T16:52:03.898Z,-21122.01
2019-01-16T16:54:49.982Z,-21124.72
2019-01-16T16:57:22.616Z,-21116.18
2019-01-16T17:00:08.962Z,-21120.59
2019-01-16T17:02:38.982Z,-21118.31
2019-01-16T17:05:16.995Z,-21117.60
2019-01-16T17:07:58.748Z,-21121.73
2019-01-16T17:10:28.685Z,-21124.57
2019-01-16T17:13:04.357Z,-21123.72
2019-01-16T17:15:37.007Z,-21109.91
2019-01-16T17:18:18.824Z,-21106.78
2019-01-16T17:20:54.170Z,-21120.30
2019-01-16T17:23:27.049Z,-21126.29
2019-01-16T17:26:06.488Z,-21129.41
2019-01-16T17:28:52.266Z,-21124.29
2019-01-16T17:31:26.495Z,-21125.71
2019-01-16T17:34:00.475Z,-21126.29
2019-01-16T17:36:36.239Z,-21114.61
2019-01-16T17:39:12.005Z,-21121.16
2019-01-16T17:41:42.008Z,-21117.04
2019-01-16T17:44:14.640Z,-21120.87
2019-01-16T17:47:04.028Z,-21121.30
2019-01-16T17:49:46.183Z,-21119.17
2019-01-16T17:52:32.319Z,-21114.61
2019-01-16T17:55:18.847Z,-21113.90
2019-01-16T17:57:57.713Z,-21113.76
2019-01-16T18:00:27.618Z,-21128.13
2019-01-16T18:03:03.042Z,-21121.30
2019-01-16T18:05:49.109Z,-21109.77
2019-01-16T18:08:27.732Z,-21120.73
2019-01-16T18:11:13.820Z,-21112.62
2019-01-16T18:13:46.627Z,-21129.70
2019-01-16T18:16:34.353Z,-21131.26
2019-01-16T18:19:16.269Z,-21128.13
2019-01-16T18:22:05.694Z,-21125.57
2019-01-16T18:24:34.895Z,-21129.13
2019-01-16T18:27:04.958Z,-21129.84
2019-01-16T18:29:37.543Z,-21134.68
2019-01-16T18:32:10.522Z,-21144.92
2019-01-16T18:34:58.460Z,-21127.42
2019-01-16T18:37:30.944Z,-21135.11
2019-01-16T18:40:06.998Z,-21117.74
2019-01-16T18:42:49.955Z,-21133.82
2019-01-16T18:45:22.380Z,-21121.02
2019-01-16T18:48:07.358Z,-21124.57
2019-01-16T18:50:43.084Z,-21128.28
2019-01-16T18:53:31.306Z,-21114.04
2019-01-16T18:56:17.403Z,-21117.60
2019-01-16T18:59:03.223Z,-21099.66
2019-01-16T19:01:35.833Z,-21114.04
2019-01-16T19:04:08.550Z,-21126.99
2019-01-16T19:06:41.745Z,-21131.98
2019-01-16T19:09:29.780Z,-21110.48
2019-01-16T19:12:02.413Z,-21126.71
2019-01-16T19:14:48.486Z,-21140.23
2019-01-16T19:17:27.365Z,-21115.75
2019-01-16T19:20:15.310Z,-21110.91
2019-01-16T19:22:48.175Z,-21114.75
2019-01-16T19:25:18.066Z,-21105.64
2019-01-16T19:28:04.014Z,-21125.00
2019-01-16T19:30:49.893Z,-21132.68
2019-01-16T19:33:22.241Z,-21125.71
2019-01-16T19:35:54.868Z,-21120.45
2019-01-16T19:38:24.819Z,-21128.28
2019-01-16T19:41:00.789Z,-21131.69
2019-01-16T19:43:33.573Z,-21128.85
2019-01-16T19:46:05.993Z,-21140.23
2019-01-16T19:48:41.756Z,-21136.10
2019-01-16T19:51:23.587Z,-21132.40
2019-01-16T19:54:02.342Z,-21114.18
2019-01-16T19:56:38.314Z,-21131.84
2019-01-16T19:59:08.298Z,-21123.30
2019-01-16T20:01:49.984Z,-21131.69
2019-01-16T20:04:22.713Z,-21119.17
2019-01-16T20:07:01.380Z,-21106.93
2019-01-16T20:09:48.373Z,-21115.04
2019-01-16T20:12:22.901Z,-21110.63
2019-01-16T20:14:55.598Z,-21119.74
2019-01-16T20:17:28.386Z,-21107.63
2019-01-16T20:20:04.157Z,-21110.34
2019-01-16T20:22:34.063Z,-21109.77
2019-01-16T20:25:06.978Z,-21108.63
2019-01-16T20:27:36.875Z,-21114.18
2019-01-16T20:30:18.937Z,-21111.62
2019-01-16T20:33:00.621Z,-21108.78
2019-01-16T20:35:36.279Z,-21114.90
2019-01-16T20:38:08.613Z,-21114.04
2019-01-16T20:40:55.123Z,-21124.43
2019-01-16T20:43:25.046Z,-21111.20
2019-01-16T20:46:03.703Z,-21118.03
2019-01-16T20:48:49.547Z,-21118.74
2019-01-16T20:51:19.478Z,-21109.77
2019-01-16T20:53:58.688Z,-21112.34
2019-01-16T20:56:31.107Z,-21119.03
2019-01-16T20:59:01.023Z,-21115.18
2019-01-16T21:01:47.172Z,-21115.90
2019-01-16T21:07:27.152Z,-21116.04
2019-01-16T21:09:57.063Z,-21124.29
2019-01-16T21:12:35.509Z,-21121.02
2019-01-16T21:15:19.485Z,-21131.84
2019-01-16T21:17:54.996Z,-21122.16
2019-01-16T21:20:36.679Z,-21137.67
2019-01-16T21:23:09.348Z,-21118.17
2019-01-16T21:25:54.592Z,-21124.00
2019-01-16T21:28:27.180Z,-21122.30
2019-01-16T21:31:05.926Z,-21117.18
2019-01-16T21:33:35.821Z,-21118.31
2019-01-16T21:36:05.719Z,-21127.99
2019-01-16T21:38:38.047Z,-21116.32
2019-01-16T21:41:24.361Z,-21111.48
2019-01-16T21:44:00.497Z,-21114.18
2019-01-16T21:46:39.394Z,-21119.17
2019-01-16T21:49:25.466Z,-21133.97
2019-01-16T21:51:55.373Z,-21126.99
2019-01-16T21:54:41.193Z,-21148.90
2019-01-16T21:57:27.118Z,-21134.39
2019-01-16T22:00:09.186Z,-21142.93
2019-01-16T22:02:39.085Z,-21132.54
2019-01-16T22:05:26.688Z,-21142.65
2019-01-16T22:08:02.145Z,-21136.10
2019-01-16T22:10:32.092Z,-21144.35
2019-01-16T22:13:01.989Z,-21142.79
2019-01-16T22:15:47.988Z,-21142.36
2019-01-16T22:18:36.017Z,-21139.09
2019-01-16T22:21:11.885Z,-21142.08
2019-01-16T22:23:56.963Z,-21142.36
2019-01-16T22:26:29.826Z,-21150.47
2019-01-16T22:29:05.689Z,-21135.53
2019-01-16T22:31:53.727Z,-21149.61
2019-01-16T22:34:29.653Z,-21138.10
2019-01-16T22:37:08.674Z,-21158.42
2019-01-16T22:39:54.684Z,-21145.92
2019-01-16T22:42:24.613Z,-21146.20
2019-01-16T22:45:00.473Z,-21156.86
2019-01-16T22:47:39.150Z,-21148.48
2019-01-16T22:50:12.467Z,-21156.72
2019-01-16T22:53:00.413Z,-21148.05
2019-01-16T22:55:46.489Z,-21149.47
2019-01-16T22:58:22.369Z,-21157.43
2019-01-16T23:01:01.690Z,-21146.77
2019-01-16T23:03:40.517Z,-21156.01
2019-01-16T23:06:13.250Z,-21153.73
2019-01-16T23:08:48.945Z,-21137.67
2019-01-16T23:11:35.010Z,-21141.23
2019-01-16T23:14:07.599Z,-21141.09
2019-01-16T23:16:40.661Z,-21151.46
2019-01-16T23:19:10.592Z,-21144.92
2019-01-16T23:21:49.028Z,-21143.64
2019-01-16T23:24:21.429Z,-21154.45
2019-01-16T23:26:57.097Z,-21146.20
2019-01-16T23:29:29.720Z,-21155.86
2019-01-16T23:32:08.266Z,-21144.49
2019-01-16T23:34:56.292Z,-21150.47
2019-01-16T23:37:38.464Z,-21145.63
2019-01-16T23:40:09.941Z,-21140.23
2019-01-16T23:42:43.053Z,-21134.54
2019-01-16T23:45:18.990Z,-21136.38
2019-01-16T23:47:55.052Z,-21130.55
2019-01-16T23:50:24.963Z,-21138.24
2019-01-16T23:52:54.884Z,-21140.09
2019-01-16T23:55:24.776Z,-21129.70
2019-01-16T23:58:03.634Z,-21162.40
